Time;durP1;ratioP1;P1;durP2;ratioP2;P2;SDS_P1;SDS_P2;PMS_P1;PMS_P2;Temp;Humidity;BMP_temperature;BMP_pressure;BME280_temperature;BME280_humidity;BME280_pressure;Samples;Min_cycle;Max_cycle;Signal;HPM_P1;HPM_P2
2022/12/02 00:02:18;;;;;;;;;;;4.30;99.90;;;;;;5064989;28;20327;-83
2022/12/02 00:04:44;;;;;;;;;;;4.30;99.90;;;;;;5062454;28;19921;-82
2022/12/02 00:07:16;;;;;;;;;;;4.30;99.90;;;;;;5062865;28;19946;-82
2022/12/02 00:09:42;;;;;;;;;;;4.20;99.90;;;;;;5062696;28;19921;-83
2022/12/02 00:12:19;;;;;;;;;;;4.30;99.90;;;;;;5064234;28;20051;-83
2022/12/02 00:14:45;;;;;;;;;;;4.20;99.90;;;;;;5060548;28;19920;-83
2022/12/02 00:17:10;;;;;;;;;;;4.30;99.90;;;;;;5064328;28;19916;-83
2022/12/02 00:19:36;;;;;;;;;;;5.00;99.90;;;;;;5062174;28;19921;-83
2022/12/02 00:22:01;;;;;;;;;;;4.30;99.90;;;;;;5064868;28;20390;-82
2022/12/02 00:24:27;;;;;;;;;;;4.30;99.90;;;;;;5061250;28;19975;-83
2022/12/02 00:26:55;;;;;;;;;;;4.80;99.90;;;;;;5066155;28;20379;-83
2022/12/02 00:29:20;;;;;;;;;;;4.80;99.90;;;;;;5064671;28;19921;-83
2022/12/02 00:31:46;;;;;;;;;;;4.40;99.90;;;;;;5060958;28;19921;-83
2022/12/02 00:34:14;;;;;;;;;;;4.10;99.90;;;;;;5062195;28;19921;-83
2022/12/02 00:36:43;;;;;;;;;;;4.00;99.90;;;;;;5062052;28;19960;-83
2022/12/02 00:39:08;;;;;;;;;;;4.10;99.90;;;;;;5062577;28;19956;-83
2022/12/02 00:41:33;;;;;;;;;;;4.10;99.90;;;;;;5060771;28;19942;-83
2022/12/02 00:46:43;;;;;;;;;;;4.00;99.90;;;;;;5062890;28;19920;-83
2022/12/02 00:49:13;;;;;;;;;;;4.10;99.90;;;;;;5061703;28;19920;-83
2022/12/02 00:51:39;;;;;;;;;;;4.10;99.90;;;;;;5067071;28;19920;-83
2022/12/02 00:54:08;;;;;;;;;;;4.00;99.90;;;;;;5063848;28;19921;-82
2022/12/02 00:56:33;;;;;;;;;;;4.00;99.90;;;;;;5060242;28;20329;-83
2022/12/02 00:58:59;;;;;;;;;;;4.80;99.90;;;;;;5059619;28;19925;-83
2022/12/02 01:01:24;;;;;;;;;;;4.00;99.90;;;;;;5068438;28;19924;-83
2022/12/02 01:03:50;;;;;;;;;;;4.00;99.90;;;;;;5059784;28;20027;-83
2022/12/02 01:06:16;;;;;;;;;;;4.00;99.90;;;;;;5063257;28;20324;-82
2022/12/02 01:08:41;;;;;;;;;;;4.00;99.90;;;;;;5060976;28;19921;-83
2022/12/02 01:11:07;;;;;;;;;;;3.90;99.90;;;;;;5063105;28;19931;-82
2022/12/02 01:13:33;;;;;;;;;;;4.70;99.90;;;;;;5062085;28;19923;-82
2022/12/02 01:15:59;;;;;;;;;;;3.90;99.90;;;;;;5060618;28;19921;-82
2022/12/02 01:18:24;;;;;;;;;;;5.80;99.90;;;;;;5062514;28;20003;-82
2022/12/02 01:20:50;;;;;;;;;;;3.80;99.90;;;;;;5059478;28;20287;-82
2022/12/02 01:23:15;;;;;;;;;;;3.80;99.90;;;;;;5061234;28;19927;-83
2022/12/02 01:25:43;;;;;;;;;;;3.80;99.90;;;;;;5060479;28;20050;-82
2022/12/02 01:28:09;;;;;;;;;;;3.70;99.90;;;;;;5062207;28;19927;-83
2022/12/02 01:30:34;;;;;;;;;;;3.70;99.90;;;;;;5059817;28;19924;-82
2022/12/02 01:33:00;;;;;;;;;;;3.70;99.90;;;;;;5060845;28;20006;-83
2022/12/02 01:35:25;;;;;;;;;;;3.70;99.90;;;;;;5062773;28;19924;-83
2022/12/02 01:37:51;;;;;;;;;;;3.70;99.90;;;;;;5058691;28;19920;-83
2022/12/02 01:40:17;;;;;;;;;;;3.70;99.90;;;;;;5062912;28;19920;-83
2022/12/02 01:42:43;;;;;;;;;;;3.60;99.90;;;;;;5059556;28;19921;-82
2022/12/02 01:45:09;;;;;;;;;;;3.60;99.90;;;;;;5060545;28;19925;-83
2022/12/02 01:47:35;;;;;;;;;;;3.60;99.90;;;;;;5059749;28;20383;-83
2022/12/02 01:50:01;;;;;;;;;;;3.60;99.90;;;;;;5060023;28;20011;-83
2022/12/02 01:52:26;;;;;;;;;;;3.60;99.90;;;;;;5060028;28;19921;-84
2022/12/02 01:54:52;;;;;;;;;;;3.60;99.90;;;;;;5061938;28;20372;-83
2022/12/02 01:57:20;;;;;;;;;;;3.60;99.90;;;;;;5058549;28;19920;-83
2022/12/02 01:59:46;;;;;;;;;;;3.60;99.90;;;;;;5060632;28;20011;-83
2022/12/02 02:02:28;;;;;;;;;;;3.60;99.90;;;;;;5058969;28;19921;-83
2022/12/02 02:04:55;;;;;;;;;;;3.60;99.90;;;;;;5022497;28;1072043;-84
2022/12/02 02:07:21;;;;;;;;;;;3.50;99.90;;;;;;5060851;28;20264;-83
2022/12/02 02:09:49;;;;;;;;;;;4.20;99.90;;;;;;5061484;28;19973;-83
2022/12/02 02:12:15;;;;;;;;;;;3.50;99.90;;;;;;5060422;28;19924;-83
2022/12/02 02:14:41;;;;;;;;;;;3.50;99.90;;;;;;5061765;28;19920;-82
2022/12/02 02:17:07;;;;;;;;;;;3.50;99.90;;;;;;5059479;28;19917;-82
2022/12/02 02:19:32;;;;;;;;;;;3.40;99.90;;;;;;5059929;28;19927;-83
2022/12/02 02:21:59;;;;;;;;;;;3.40;99.90;;;;;;5061708;28;20294;-82
2022/12/02 02:24:24;;;;;;;;;;;3.40;99.90;;;;;;5060528;28;20371;-82
2022/12/02 02:26:50;;;;;;;;;;;3.50;99.90;;;;;;5061134;28;19982;-83
2022/12/02 02:29:15;;;;;;;;;;;3.40;99.90;;;;;;5060345;28;19920;-82
2022/12/02 02:31:41;;;;;;;;;;;3.40;99.90;;;;;;5060150;28;19920;-83
2022/12/02 02:34:07;;;;;;;;;;;3.40;99.90;;;;;;5062475;28;19931;-84
2022/12/02 02:36:32;;;;;;;;;;;3.40;99.90;;;;;;5060596;28;19921;-85
2022/12/02 02:38:58;;;;;;;;;;;3.40;99.90;;;;;;5061018;28;19963;-85
2022/12/02 02:41:24;;;;;;;;;;;3.40;99.90;;;;;;5060270;28;19920;-83
2022/12/02 02:43:50;;;;;;;;;;;3.30;99.90;;;;;;5065125;28;19928;-83
2022/12/02 02:46:15;;;;;;;;;;;3.30;99.90;;;;;;5062742;28;19921;-84
2022/12/02 02:48:42;;;;;;;;;;;3.30;99.90;;;;;;5057810;28;19986;-83
2022/12/02 02:51:08;;;;;;;;;;;3.30;99.90;;;;;;5061977;28;19924;-83
2022/12/02 02:53:34;;;;;;;;;;;3.30;99.90;;;;;;5058392;28;20326;-84
2022/12/02 02:55:59;;;;;;;;;;;4.50;99.90;;;;;;5062493;28;19921;-83
2022/12/02 02:58:25;;;;;;;;;;;3.30;99.90;;;;;;5064581;28;19920;-84
2022/12/02 03:01:01;;;;;;;;;;;3.30;99.90;;;;;;5064349;28;19927;-84
2022/12/02 03:03:30;;;;;;;;;;;3.30;99.90;;;;;;5064794;28;19928;-84
2022/12/02 03:05:57;;;;;;;;;;;3.30;99.90;;;;;;5064163;28;19921;-84
2022/12/02 03:08:23;;;;;;;;;;;3.60;99.90;;;;;;5065194;28;19920;-83
2022/12/02 03:10:50;;;;;;;;;;;3.30;99.90;;;;;;5068895;28;19920;-84
2022/12/02 03:13:15;;;;;;;;;;;3.60;99.90;;;;;;5080907;28;19924;-84
2022/12/02 03:15:41;;;;;;;;;;;3.30;99.90;;;;;;5062543;28;20337;-83
2022/12/02 03:18:07;;;;;;;;;;;3.30;99.90;;;;;;5069077;28;19920;-83
2022/12/02 03:20:32;;;;;;;;;;;3.20;99.90;;;;;;5078430;28;19944;-83
2022/12/02 03:22:58;;;;;;;;;;;3.20;99.90;;;;;;5065976;28;19960;-83
2022/12/02 03:25:24;;;;;;;;;;;3.10;99.90;;;;;;5063434;28;19920;-83
2022/12/02 03:27:49;;;;;;;;;;;3.10;99.90;;;;;;5061594;28;19993;-84
2022/12/02 03:30:15;;;;;;;;;;;3.10;99.90;;;;;;5062782;28;19921;-83
2022/12/02 03:32:41;;;;;;;;;;;3.10;99.90;;;;;;5064602;28;19927;-83
2022/12/02 03:35:07;;;;;;;;;;;3.10;99.90;;;;;;5063686;28;19956;-84
2022/12/02 03:37:32;;;;;;;;;;;3.10;99.90;;;;;;5063751;28;20009;-83
2022/12/02 03:39:58;;;;;;;;;;;3.10;99.90;;;;;;5061293;28;19925;-83
2022/12/02 03:42:24;;;;;;;;;;;3.10;99.90;;;;;;5065888;28;19920;-83
2022/12/02 03:44:50;;;;;;;;;;;3.10;99.90;;;;;;5062285;28;20410;-84
2022/12/02 03:47:15;;;;;;;;;;;3.10;99.90;;;;;;5064420;28;19921;-83
2022/12/02 03:49:43;;;;;;;;;;;3.10;99.90;;;;;;5063021;28;19927;-85
2022/12/02 03:52:09;;;;;;;;;;;3.10;99.90;;;;;;5063229;28;19920;-84
2022/12/02 03:54:35;;;;;;;;;;;3.00;99.90;;;;;;5063007;28;19920;-84
2022/12/02 03:57:03;;;;;;;;;;;3.00;99.90;;;;;;5062545;28;19921;-84
2022/12/02 03:59:28;;;;;;;;;;;3.00;99.90;;;;;;5063168;28;19920;-84
2022/12/02 04:01:54;;;;;;;;;;;3.00;99.90;;;;;;5061636;28;19928;-84
2022/12/02 04:04:20;;;;;;;;;;;3.00;99.90;;;;;;5065008;28;19928;-84
2022/12/02 04:06:45;;;;;;;;;;;3.00;99.90;;;;;;5061185;28;19927;-84
2022/12/02 04:09:11;;;;;;;;;;;3.00;99.90;;;;;;5063798;28;19920;-83
2022/12/02 04:11:36;;;;;;;;;;;3.00;99.90;;;;;;5067313;28;19920;-83
2022/12/02 04:14:02;;;;;;;;;;;3.00;99.90;;;;;;5062039;28;19921;-83
2022/12/02 04:16:28;;;;;;;;;;;3.00;99.90;;;;;;5064350;28;19928;-83
2022/12/02 04:18:53;;;;;;;;;;;3.00;99.90;;;;;;5060688;28;19920;-83
2022/12/02 04:21:19;;;;;;;;;;;3.00;99.90;;;;;;5063008;28;19974;-83
2022/12/02 04:23:44;;;;;;;;;;;3.00;99.90;;;;;;5060662;28;19921;-83
2022/12/02 04:26:10;;;;;;;;;;;3.00;99.90;;;;;;5063328;28;19925;-83
2022/12/02 04:28:35;;;;;;;;;;;3.00;99.90;;;;;;5061201;28;19958;-83
2022/12/02 04:31:01;;;;;;;;;;;3.00;99.90;;;;;;5062529;28;19956;-82
2022/12/02 04:33:26;;;;;;;;;;;3.00;99.90;;;;;;5063630;28;20644;-84
2022/12/02 04:35:52;;;;;;;;;;;3.00;99.90;;;;;;5062404;28;20368;-83
2022/12/02 04:38:18;;;;;;;;;;;3.00;99.90;;;;;;5061161;28;20280;-83
2022/12/02 04:40:43;;;;;;;;;;;2.40;99.90;;;;;;5061186;28;20300;-83
2022/12/02 04:43:09;;;;;;;;;;;3.00;99.90;;;;;;5060640;28;20058;-82
2022/12/02 04:45:34;;;;;;;;;;;3.00;99.90;;;;;;5062924;28;19921;-82
2022/12/02 04:48:00;;;;;;;;;;;3.00;99.90;;;;;;5062527;28;20412;-83
2022/12/02 04:50:25;;;;;;;;;;;3.00;99.90;;;;;;5065631;28;19920;-83
2022/12/02 04:52:51;;;;;;;;;;;3.00;99.90;;;;;;5064318;28;19921;-85
2022/12/02 04:55:16;;;;;;;;;;;3.00;99.90;;;;;;5063920;28;20003;-82
2022/12/02 04:57:42;;;;;;;;;;;2.90;99.90;;;;;;5060979;28;19999;-81
2022/12/02 05:00:08;;;;;;;;;;;3.00;99.90;;;;;;5062542;28;20370;-73
2022/12/02 05:02:33;;;;;;;;;;;3.00;99.90;;;;;;5061096;28;19923;-78
2022/12/02 05:04:59;;;;;;;;;;;3.00;99.90;;;;;;5062228;28;19927;-77
2022/12/02 05:07:24;;;;;;;;;;;3.00;99.90;;;;;;5067197;28;19927;-78
2022/12/02 05:09:50;;;;;;;;;;;2.80;99.90;;;;;;5059660;28;19921;-78
2022/12/02 05:12:15;;;;;;;;;;;2.90;99.90;;;;;;5063153;28;19921;-79
2022/12/02 05:14:41;;;;;;;;;;;2.90;99.90;;;;;;5061771;28;19928;-81
2022/12/02 05:17:07;;;;;;;;;;;2.90;99.90;;;;;;5061842;28;19920;-82
2022/12/02 05:19:32;;;;;;;;;;;2.90;99.90;;;;;;5061470;28;20303;-78
2022/12/02 05:21:58;;;;;;;;;;;2.90;99.90;;;;;;5066583;28;19921;-77
2022/12/02 05:24:23;;;;;;;;;;;2.90;99.90;;;;;;5062014;28;20302;-78
2022/12/02 05:26:49;;;;;;;;;;;2.90;99.90;;;;;;5061279;28;19921;-79
2022/12/02 05:29:15;;;;;;;;;;;2.90;99.90;;;;;;5063509;28;20384;-74
2022/12/02 05:31:40;;;;;;;;;;;2.90;99.90;;;;;;5059666;28;19925;-75
2022/12/02 05:34:06;;;;;;;;;;;4.80;99.90;;;;;;5062587;28;19927;-74
2022/12/02 05:36:32;;;;;;;;;;;2.90;99.90;;;;;;5061720;28;19963;-84
2022/12/02 05:38:58;;;;;;;;;;;2.90;99.90;;;;;;5063943;28;19924;-82
2022/12/02 05:41:23;;;;;;;;;;;2.80;99.90;;;;;;5056742;28;19921;-82
2022/12/02 05:43:49;;;;;;;;;;;3.90;99.90;;;;;;5055485;28;19929;-80
2022/12/02 05:46:15;;;;;;;;;;;2.90;99.90;;;;;;5052117;28;20285;-82
2022/12/02 05:48:41;;;;;;;;;;;2.90;99.90;;;;;;5052107;28;19966;-88
2022/12/02 05:51:11;;;;;;;;;;;3.50;99.90;;;;;;5057771;28;19921;-81
2022/12/02 05:53:37;;;;;;;;;;;2.90;99.90;;;;;;5060775;28;20282;-76
2022/12/02 05:56:05;;;;;;;;;;;3.50;99.90;;;;;;5060767;28;19916;-82
2022/12/02 05:58:30;;;;;;;;;;;2.80;99.90;;;;;;5057532;28;19971;-80
2022/12/02 06:01:00;;;;;;;;;;;2.80;99.90;;;;;;5059009;28;20344;-78
2022/12/02 06:03:25;;;;;;;;;;;2.70;99.90;;;;;;5060227;28;20386;-83
2022/12/02 06:05:54;;;;;;;;;;;2.70;99.90;;;;;;5060390;28;20007;-78
2022/12/02 06:08:20;;;;;;;;;;;2.60;99.90;;;;;;5060736;28;19921;-82
2022/12/02 06:10:58;;;;;;;;;;;2.60;99.90;;;;;;5060620;28;19920;-73
2022/12/02 06:13:24;;;;;;;;;;;2.60;99.90;;;;;;5060772;28;20305;-82
2022/12/02 06:15:50;;;;;;;;;;;2.50;99.90;;;;;;5059293;28;20311;-74
2022/12/02 06:18:20;;;;;;;;;;;2.50;99.90;;;;;;5061913;28;19965;-73
2022/12/02 06:20:50;;;;;;;;;;;2.40;99.90;;;;;;5060075;28;19916;-75
2022/12/02 06:23:17;;;;;;;;;;;2.40;99.90;;;;;;5061997;28;19966;-77
2022/12/02 06:25:43;;;;;;;;;;;2.40;99.90;;;;;;5060566;28;20405;-88
2022/12/02 06:28:11;;;;;;;;;;;2.30;99.90;;;;;;5060194;28;19921;-89
2022/12/02 06:30:38;;;;;;;;;;;2.30;99.90;;;;;;5061983;28;20306;-89
2022/12/02 06:33:03;;;;;;;;;;;2.30;99.90;;;;;;5065408;28;20371;-82
2022/12/02 06:35:30;;;;;;;;;;;3.00;99.90;;;;;;5062374;28;19921;-77
2022/12/02 06:37:57;;;;;;;;;;;2.20;99.90;;;;;;5065579;28;20386;-77
2022/12/02 06:40:33;;;;;;;;;;;2.30;99.90;;;;;;5062483;28;19996;-76
2022/12/02 06:42:59;;;;;;;;;;;2.30;99.90;;;;;;5062782;28;19921;-77
2022/12/02 06:45:32;;;;;;;;;;;2.30;99.90;;;;;;5066268;28;19921;-79
2022/12/02 06:47:57;;;;;;;;;;;2.20;99.90;;;;;;5076870;28;19924;-79
2022/12/02 06:50:33;;;;;;;;;;;2.20;99.90;;;;;;5068315;28;20011;-80
2022/12/02 06:53:06;;;;;;;;;;;2.20;99.90;;;;;;5064691;28;20298;-79
2022/12/02 06:55:36;;;;;;;;;;;2.10;99.90;;;;;;5061547;28;19935;-82
2022/12/02 06:58:13;;;;;;;;;;;2.10;99.90;;;;;;5066365;28;19920;-83
2022/12/02 07:00:39;;;;;;;;;;;2.10;99.90;;;;;;5065353;28;20287;-81
2022/12/02 07:03:10;;;;;;;;;;;2.10;99.90;;;;;;5061234;28;19924;-85
2022/12/02 07:05:35;;;;;;;;;;;2.00;99.90;;;;;;5060998;28;20331;-84
2022/12/02 07:08:03;;;;;;;;;;;2.00;99.90;;;;;;5065462;28;19967;-88
2022/12/02 07:10:32;;;;;;;;;;;2.00;99.90;;;;;;5067625;28;19920;-86
2022/12/02 07:12:57;;;;;;;;;;;2.00;99.90;;;;;;5088020;28;20051;-85
2022/12/02 07:15:23;;;;;;;;;;;2.00;99.90;;;;;;5066263;28;19924;-86
2022/12/02 07:17:48;;;;;;;;;;;2.00;99.90;;;;;;5062907;28;19927;-91
2022/12/02 07:20:14;;;;;;;;;;;2.00;99.90;;;;;;5066367;28;20291;-78
2022/12/02 07:22:42;;;;;;;;;;;2.00;99.90;;;;;;5062994;28;20286;-78
2022/12/02 07:25:08;;;;;;;;;;;2.00;99.90;;;;;;5063477;28;19981;-78
2022/12/02 07:27:36;;;;;;;;;;;2.00;99.90;;;;;;5061050;28;19925;-76
2022/12/02 07:30:02;;;;;;;;;;;2.70;99.90;;;;;;5061676;28;19927;-77
2022/12/02 07:32:28;;;;;;;;;;;2.30;99.90;;;;;;5062914;28;19925;-76
2022/12/02 07:34:53;;;;;;;;;;;2.00;99.90;;;;;;5063475;28;19920;-76
2022/12/02 07:37:19;;;;;;;;;;;2.10;99.90;;;;;;5060711;28;19924;-76
2022/12/02 07:39:45;;;;;;;;;;;2.10;99.90;;;;;;5064462;28;19916;-76
2022/12/02 07:42:12;;;;;;;;;;;2.10;99.90;;;;;;5061778;28;20449;-77
2022/12/02 07:44:39;;;;;;;;;;;2.10;99.90;;;;;;5063620;28;20376;-76
2022/12/02 07:47:05;;;;;;;;;;;2.10;99.90;;;;;;5062444;28;19923;-76
2022/12/02 07:49:31;;;;;;;;;;;2.10;99.90;;;;;;5062880;28;19920;-76
2022/12/02 07:51:56;;;;;;;;;;;2.10;99.90;;;;;;5064278;28;20286;-76
2022/12/02 07:54:22;;;;;;;;;;;2.10;99.90;;;;;;5062677;28;19987;-77
2022/12/02 07:56:47;;;;;;;;;;;2.10;99.90;;;;;;5061057;28;19929;-77
2022/12/02 07:59:15;;;;;;;;;;;2.10;99.90;;;;;;5061409;28;19956;-77
2022/12/02 08:01:41;;;;;;;;;;;2.10;99.90;;;;;;5064755;28;19928;-77
2022/12/02 08:04:07;;;;;;;;;;;2.00;99.90;;;;;;5064012;28;19928;-77
2022/12/02 08:06:32;;;;;;;;;;;2.10;99.90;;;;;;5063202;28;20015;-77
2022/12/02 08:08:58;;;;;;;;;;;2.10;99.90;;;;;;5063780;28;19921;-77
2022/12/02 08:11:23;;;;;;;;;;;2.10;99.90;;;;;;5062768;28;19920;-77
2022/12/02 08:13:49;;;;;;;;;;;2.00;99.90;;;;;;5061168;28;19921;-75
2022/12/02 08:16:14;;;;;;;;;;;2.10;99.90;;;;;;5065724;28;19927;-76
2022/12/02 08:18:40;;;;;;;;;;;2.20;99.90;;;;;;5061159;28;20279;-77
2022/12/02 08:21:05;;;;;;;;;;;2.20;99.90;;;;;;5065086;28;19981;-77
2022/12/02 08:23:31;;;;;;;;;;;2.20;99.90;;;;;;5062569;28;19920;-77
2022/12/02 08:25:59;;;;;;;;;;;3.00;99.90;;;;;;5061686;28;20265;-77
2022/12/02 08:28:24;;;;;;;;;;;2.00;99.90;;;;;;5061680;28;19920;-76
2022/12/02 08:30:50;;;;;;;;;;;2.20;99.90;;;;;;5064218;28;20287;-77
2022/12/02 08:33:15;;;;;;;;;;;2.20;99.90;;;;;;5061349;28;19928;-77
2022/12/02 08:35:41;;;;;;;;;;;2.30;99.90;;;;;;5064884;28;19981;-77
2022/12/02 08:38:06;;;;;;;;;;;2.30;99.90;;;;;;5065302;28;19916;-77
2022/12/02 08:40:33;;;;;;;;;;;2.30;99.90;;;;;;5060772;28;20276;-77
2022/12/02 08:42:59;;;;;;;;;;;2.40;99.90;;;;;;5062857;28;19920;-77
2022/12/02 08:45:28;;;;;;;;;;;2.60;99.90;;;;;;5064821;28;19923;-77
2022/12/02 08:47:54;;;;;;;;;;;4.80;99.90;;;;;;5079750;28;20444;-77
2022/12/02 08:50:19;;;;;;;;;;;2.90;99.90;;;;;;5062410;28;19924;-76
2022/12/02 08:52:45;;;;;;;;;;;3.10;99.90;;;;;;5061575;28;19921;-76
2022/12/02 08:55:13;;;;;;;;;;;3.20;99.90;;;;;;5063718;28;19926;-76
2022/12/02 08:57:39;;;;;;;;;;;3.30;99.90;;;;;;5060867;28;19947;-77
2022/12/02 09:00:05;;;;;;;;;;;3.50;99.90;;;;;;5063975;28;19935;-76
2022/12/02 09:02:31;;;;;;;;;;;3.60;99.90;;;;;;5058130;28;19967;-78
2022/12/02 09:04:56;;;;;;;;;;;3.70;99.90;;;;;;5060631;28;19967;-77
2022/12/02 09:07:22;;;;;;;;;;;3.80;99.90;;;;;;5063883;28;20500;-77
2022/12/02 09:09:47;;;;;;;;;;;4.50;99.90;;;;;;5079031;28;19995;-77
2022/12/02 09:12:13;;;;;;;;;;;3.90;99.90;;;;;;5062519;28;20389;-78
2022/12/02 09:14:38;;;;;;;;;;;3.90;99.90;;;;;;5058555;28;19920;-77
2022/12/02 09:17:04;;;;;;;;;;;4.00;99.90;;;;;;5062811;28;20069;-78
2022/12/02 09:19:30;;;;;;;;;;;4.10;99.90;;;;;;5061353;28;20275;-78
2022/12/02 09:21:55;;;;;;;;;;;5.10;99.90;;;;;;5058260;28;19978;-78
2022/12/02 09:24:21;;;;;;;;;;;4.10;99.90;;;;;;5062348;28;19978;-77
2022/12/02 09:26:47;;;;;;;;;;;4.10;99.90;;;;;;5061679;28;19927;-77
2022/12/02 09:29:12;;;;;;;;;;;4.00;99.90;;;;;;5059268;28;19925;-77
2022/12/02 09:31:38;;;;;;;;;;;4.00;99.90;;;;;;5060924;28;19924;-77
2022/12/02 09:34:03;;;;;;;;;;;4.00;99.90;;;;;;5060168;28;19925;-77
2022/12/02 09:36:29;;;;;;;;;;;3.90;99.90;;;;;;5061762;28;20364;-77
2022/12/02 09:38:54;;;;;;;;;;;3.90;99.90;;;;;;5063283;28;20061;-77
2022/12/02 09:41:20;;;;;;;;;;;4.00;99.90;;;;;;5060487;28;19942;-78
2022/12/02 09:43:46;;;;;;;;;;;5.40;99.90;;;;;;5064073;28;19920;-77
2022/12/02 09:46:11;;;;;;;;;;;4.80;99.90;;;;;;5061916;28;19920;-77
2022/12/02 09:48:37;;;;;;;;;;;4.90;99.90;;;;;;5061078;28;19927;-79
2022/12/02 09:51:03;;;;;;;;;;;5.10;99.90;;;;;;5061969;28;19942;-79
2022/12/02 09:53:31;;;;;;;;;;;5.10;99.90;;;;;;5060326;28;20075;-77
2022/12/02 09:56:00;;;;;;;;;;;5.20;99.90;;;;;;5058518;28;19921;-77
2022/12/02 09:58:27;;;;;;;;;;;5.80;99.90;;;;;;5059147;28;20334;-77
2022/12/02 10:00:53;;;;;;;;;;;6.10;99.90;;;;;;5063304;28;19927;-77
2022/12/02 10:03:21;;;;;;;;;;;7.60;99.90;;;;;;5061026;28;19940;-76
2022/12/02 10:05:46;;;;;;;;;;;7.70;99.90;;;;;;5061562;28;20351;-77
2022/12/02 10:08:30;;;;;;;;;;;8.40;99.90;;;;;;5064921;28;19967;-78
2022/12/02 10:10:56;;;;;;;;;;;9.40;99.90;;;;;;5062965;28;19979;-77
2022/12/02 10:13:23;;;;;;;;;;;7.20;99.90;;;;;;5066921;28;19959;-75
2022/12/02 10:15:49;;;;;;;;;;;8.00;99.90;;;;;;5062129;28;19920;-76
2022/12/02 10:18:18;;;;;;;;;;;8.90;99.90;;;;;;5064418;28;19929;-76
2022/12/02 10:20:43;;;;;;;;;;;9.60;99.90;;;;;;5062590;28;19967;-76
2022/12/02 10:23:11;;;;;;;;;;;10.10;99.90;;;;;;5065575;28;19956;-76
2022/12/02 10:25:37;;;;;;;;;;;10.50;99.90;;;;;;5062729;28;19920;-76
2022/12/02 10:28:03;;;;;;;;;;;11.00;99.90;;;;;;5063828;28;20380;-76
2022/12/02 10:30:29;;;;;;;;;;;11.20;99.90;;;;;;5065115;28;19921;-75
2022/12/02 10:33:05;;;;;;;;;;;11.50;99.90;;;;;;5063045;28;19920;-76
2022/12/02 10:35:44;;;;;;;;;;;12.00;99.90;;;;;;5064170;28;20370;-76
2022/12/02 10:38:30;;;;;;;;;;;12.10;97.40;;;;;;5062313;28;19924;-77
2022/12/02 10:41:15;;;;;;;;;;;12.70;99.70;;;;;;5063139;28;19921;-75
2022/12/02 10:43:58;;;;;;;;;;;12.90;98.20;;;;;;5063623;28;20371;-76
2022/12/02 10:46:24;;;;;;;;;;;12.90;96.50;;;;;;5062928;28;19951;-75
2022/12/02 10:48:49;;;;;;;;;;;12.60;96.20;;;;;;5062769;28;20383;-75
2022/12/02 10:51:16;;;;;;;;;;;12.60;97.40;;;;;;5065137;28;20402;-76
2022/12/02 10:53:42;;;;;;;;;;;12.00;97.70;;;;;;5062073;28;20356;-77
2022/12/02 10:56:14;;;;;;;;;;;11.30;97.40;;;;;;5064069;28;20015;-76
2022/12/02 10:58:39;;;;;;;;;;;11.40;98.50;;;;;;5062645;28;20291;-75
2022/12/02 11:01:08;;;;;;;;;;;11.20;98.80;;;;;;5064444;28;19923;-75
2022/12/02 11:03:34;;;;;;;;;;;11.50;97.50;;;;;;5066587;28;19967;-76
2022/12/02 11:05:59;;;;;;;;;;;11.60;97.20;;;;;;5064332;28;19927;-74
2022/12/02 11:08:26;;;;;;;;;;;11.70;97.20;;;;;;5061647;28;19927;-74
2022/12/02 11:11:08;;;;;;;;;;;12.10;97.00;;;;;;5063776;28;19920;-74
2022/12/02 11:13:53;;;;;;;;;;;12.10;96.90;;;;;;5066220;28;19927;-73
2022/12/02 11:16:27;;;;;;;;;;;12.30;96.50;;;;;;5061275;28;20665;-75
2022/12/02 11:18:56;;;;;;;;;;;12.50;97.40;;;;;;5064081;28;19920;-80
2022/12/02 11:21:28;;;;;;;;;;;12.70;96.70;;;;;;5078215;28;20027;-80
2022/12/02 11:24:12;;;;;;;;;;;12.50;96.20;;;;;;5065256;28;19921;-79
2022/12/02 11:26:56;;;;;;;;;;;12.10;97.20;;;;;;5063245;28;19927;-79
2022/12/02 11:29:21;;;;;;;;;;;11.90;96.90;;;;;;5071096;28;20007;-90
2022/12/02 11:32:06;;;;;;;;;;;11.80;96.60;;;;;;5067799;28;19961;-82
2022/12/02 11:35:00;;;;;;;;;;;11.60;96.30;;;;;;5064805;28;19935;-80
2022/12/02 11:39:52;;;;;;;;;;;11.30;97.40;;;;;;5065917;28;20343;-82
2022/12/02 11:42:28;;;;;;;;;;;13.10;97.20;;;;;;5067828;28;19992;-81
2022/12/02 11:45:08;;;;;;;;;;;11.90;96.30;;;;;;5099102;28;20375;-78
2022/12/02 11:47:34;;;;;;;;;;;12.00;96.50;;;;;;5063637;28;19952;-83
2022/12/02 11:50:14;;;;;;;;;;;11.90;95.90;;;;;;5068315;28;19921;-78
2022/12/02 11:52:48;;;;;;;;;;;12.10;96.20;;;;;;5060261;28;19928;-82
2022/12/02 11:55:16;;;;;;;;;;;12.40;95.90;;;;;;5064273;28;20413;-77
2022/12/02 11:58:00;;;;;;;;;;;12.70;95.30;;;;;;5061079;28;20406;-85
2022/12/02 12:00:30;;;;;;;;;;;11.90;94.40;;;;;;5062554;28;19943;-89
2022/12/02 12:03:11;;;;;;;;;;;12.10;95.00;;;;;;5062698;28;19921;-85
2022/12/02 12:05:38;;;;;;;;;;;12.20;96.10;;;;;;5060438;28;19921;-85
2022/12/02 12:08:03;;;;;;;;;;;12.30;94.30;;;;;;5068703;28;20000;-82
2022/12/02 12:10:33;;;;;;;;;;;11.90;94.90;;;;;;5071576;28;19920;-81
2022/12/02 12:13:19;;;;;;;;;;;11.10;96.00;;;;;;5066563;28;19921;-76
2022/12/02 12:15:53;;;;;;;;;;;10.30;97.00;;;;;;5064248;28;20376;-81
2022/12/02 12:18:36;;;;;;;;;;;9.90;98.40;;;;;;5064250;28;19975;-86
2022/12/02 12:21:02;;;;;;;;;;;9.60;98.20;;;;;;5065442;28;19979;-81
2022/12/02 12:23:29;;;;;;;;;;;8.80;99.90;;;;;;5065301;28;19920;-78
2022/12/02 12:25:54;;;;;;;;;;;9.00;99.90;;;;;;5067366;28;19921;-81
2022/12/02 12:28:33;;;;;;;;;;;8.10;99.90;;;;;;5066375;28;19978;-77
2022/12/02 12:31:00;;;;;;;;;;;7.50;99.90;;;;;;5061079;28;19927;-74
2022/12/02 12:33:26;;;;;;;;;;;7.30;99.90;;;;;;5064032;28;19923;-74
2022/12/02 12:35:53;;;;;;;;;;;6.70;99.90;;;;;;5062905;28;20334;-76
2022/12/02 12:38:19;;;;;;;;;;;6.10;99.90;;;;;;5063671;28;19924;-74
2022/12/02 12:40:45;;;;;;;;;;;6.00;99.90;;;;;;5089592;28;19965;-75
2022/12/02 12:43:10;;;;;;;;;;;5.70;99.90;;;;;;5063508;28;20341;-75
2022/12/02 12:45:36;;;;;;;;;;;5.50;99.90;;;;;;5062933;28;19966;-74
2022/12/02 12:48:01;;;;;;;;;;;5.90;99.90;;;;;;5063616;28;19920;-74
2022/12/02 12:50:27;;;;;;;;;;;5.40;99.90;;;;;;5061435;28;19943;-74
2022/12/02 12:52:52;;;;;;;;;;;5.40;99.90;;;;;;5062255;28;20053;-76
2022/12/02 12:55:18;;;;;;;;;;;5.50;99.90;;;;;;5062426;28;19924;-75
2022/12/02 12:57:43;;;;;;;;;;;5.30;99.90;;;;;;5061352;28;19920;-77
2022/12/02 13:00:09;;;;;;;;;;;5.70;99.90;;;;;;5060925;28;20092;-77
2022/12/02 13:02:35;;;;;;;;;;;5.30;99.90;;;;;;5061210;28;19920;-78
2022/12/02 13:05:00;;;;;;;;;;;5.20;99.90;;;;;;5059686;28;19960;-77
2022/12/02 13:07:26;;;;;;;;;;;6.70;99.90;;;;;;5062950;28;19967;-76
2022/12/02 13:09:51;;;;;;;;;;;5.60;99.90;;;;;;5061533;28;20394;-77
2022/12/02 13:12:17;;;;;;;;;;;5.40;99.90;;;;;;5061713;28;19920;-78
2022/12/02 13:14:42;;;;;;;;;;;5.20;99.90;;;;;;5060979;28;19916;-78
2022/12/02 13:17:08;;;;;;;;;;;5.00;99.90;;;;;;5063074;28;19925;-76
2022/12/02 13:19:33;;;;;;;;;;;4.80;99.90;;;;;;5061242;28;20304;-77
2022/12/02 13:21:59;;;;;;;;;;;4.80;99.90;;;;;;5062619;28;19970;-75
2022/12/02 13:24:24;;;;;;;;;;;4.70;99.90;;;;;;5069262;28;19947;-90
2022/12/02 13:26:52;;;;;;;;;;;4.60;99.90;;;;;;5070789;28;19923;-89
2022/12/02 13:29:18;;;;;;;;;;;5.40;99.90;;;;;;5066611;28;20001;-90
2022/12/02 13:31:43;;;;;;;;;;;4.50;99.90;;;;;;5071091;28;19968;-83
2022/12/02 13:34:09;;;;;;;;;;;4.40;99.90;;;;;;5064418;28;20046;-93
2022/12/02 13:36:34;;;;;;;;;;;4.30;99.90;;;;;;5061925;28;20038;-87
2022/12/02 13:39:00;;;;;;;;;;;4.30;99.90;;;;;;5061063;28;19928;-74
2022/12/02 13:41:25;;;;;;;;;;;4.20;99.90;;;;;;5062562;28;19927;-73
2022/12/02 13:43:57;;;;;;;;;;;4.10;99.90;;;;;;5057645;28;19963;-75
2022/12/02 13:46:25;;;;;;;;;;;4.90;99.90;;;;;;5062698;28;20241;-76
2022/12/02 13:48:51;;;;;;;;;;;4.00;99.90;;;;;;5062244;28;19920;-77
2022/12/02 13:51:16;;;;;;;;;;;4.00;99.90;;;;;;5063712;28;20033;-75
2022/12/02 13:53:42;;;;;;;;;;;4.60;99.90;;;;;;5059293;28;19924;-76
2022/12/02 13:56:07;;;;;;;;;;;4.70;99.90;;;;;;5060233;28;19928;-78
2022/12/02 13:58:33;;;;;;;;;;;3.90;99.90;;;;;;5061475;28;19995;-76
2022/12/02 14:00:58;;;;;;;;;;;3.80;99.90;;;;;;5061469;28;19939;-78
2022/12/02 14:03:24;;;;;;;;;;;3.80;99.90;;;;;;5059977;28;19972;-79
2022/12/02 14:05:49;;;;;;;;;;;3.80;99.90;;;;;;5058735;28;19921;-77
2022/12/02 14:08:15;;;;;;;;;;;3.80;99.90;;;;;;5062641;28;20299;-73
2022/12/02 14:10:41;;;;;;;;;;;3.80;99.90;;;;;;5058735;28;19921;-75
2022/12/02 14:13:06;;;;;;;;;;;3.70;99.90;;;;;;5062731;28;19916;-75
2022/12/02 14:15:32;;;;;;;;;;;3.70;99.90;;;;;;5060566;28;19927;-74
2022/12/02 14:17:57;;;;;;;;;;;3.70;99.90;;;;;;5059766;28;20431;-76
2022/12/02 14:20:23;;;;;;;;;;;3.60;99.90;;;;;;5059468;28;19920;-74
2022/12/02 14:22:48;;;;;;;;;;;3.60;99.90;;;;;;5061537;28;19967;-73
2022/12/02 14:25:14;;;;;;;;;;;3.60;99.90;;;;;;5059091;28;19952;-74
2022/12/02 14:27:39;;;;;;;;;;;5.40;99.90;;;;;;5062389;28;19928;-74
2022/12/02 14:30:05;;;;;;;;;;;3.50;99.90;;;;;;5058434;28;19927;-75
2022/12/02 14:32:31;;;;;;;;;;;3.50;99.90;;;;;;5060108;28;19921;-73
2022/12/02 14:35:02;;;;;;;;;;;3.40;99.90;;;;;;5061000;28;20287;-71